sensor_id;sensor_type;location;lat;lon;timestamp;temperature;humidity
41220;DHT22;26951;47.338;9.196;2023-02-18T00:02:20;6.20;69.40
41220;DHT22;26951;47.338;9.196;2023-02-18T00:05:04;6.20;69.40
41220;DHT22;26951;47.338;9.196;2023-02-18T00:07:49;6.30;69.90
41220;DHT22;26951;47.338;9.196;2023-02-18T00:10:33;6.30;69.10
41220;DHT22;26951;47.338;9.196;2023-02-18T00:13:17;6.30;68.10
41220;DHT22;26951;47.338;9.196;2023-02-18T00:16:06;6.30;68.80
41220;DHT22;26951;47.338;9.196;2023-02-18T00:18:57;6.30;68.70
41220;DHT22;26951;47.338;9.196;2023-02-18T00:21:42;6.30;69.20
41220;DHT22;26951;47.338;9.196;2023-02-18T00:24:26;6.40;69.60
41220;DHT22;26951;47.338;9.196;2023-02-18T00:27:10;6.40;71.20
41220;DHT22;26951;47.338;9.196;2023-02-18T00:29:54;6.40;71.20
41220;DHT22;26951;47.338;9.196;2023-02-18T00:32:39;6.50;71.30
41220;DHT22;26951;47.338;9.196;2023-02-18T00:35:22;6.60;70.80
41220;DHT22;26951;47.338;9.196;2023-02-18T00:38:07;6.60;70.30
41220;DHT22;26951;47.338;9.196;2023-02-18T00:40:50;6.70;70.70
41220;DHT22;26951;47.338;9.196;2023-02-18T00:43:34;6.80;70.50
41220;DHT22;26951;47.338;9.196;2023-02-18T00:46:20;7.00;70.10
41220;DHT22;26951;47.338;9.196;2023-02-18T00:49:05;7.00;69.20
41220;DHT22;26951;47.338;9.196;2023-02-18T00:51:49;7.10;68.90
41220;DHT22;26951;47.338;9.196;2023-02-18T00:54:33;7.20;68.50
41220;DHT22;26951;47.338;9.196;2023-02-18T00:57:17;7.20;68.20
41220;DHT22;26951;47.338;9.196;2023-02-18T01:00:06;7.20;67.70
41220;DHT22;26951;47.338;9.196;2023-02-18T01:02:51;7.20;68.50
41220;DHT22;26951;47.338;9.196;2023-02-18T01:05:38;7.30;69.50
41220;DHT22;26951;47.338;9.196;2023-02-18T01:08:22;7.40;69.20
41220;DHT22;26951;47.338;9.196;2023-02-18T01:11:08;7.50;68.80
41220;DHT22;26951;47.338;9.196;2023-02-18T01:13:53;7.60;69.20
41220;DHT22;26951;47.338;9.196;2023-02-18T01:16:36;7.70;69.00
41220;DHT22;26951;47.338;9.196;2023-02-18T01:19:21;7.70;68.50
41220;DHT22;26951;47.338;9.196;2023-02-18T01:22:05;7.80;68.10
41220;DHT22;26951;47.338;9.196;2023-02-18T01:24:49;7.90;67.40
41220;DHT22;26951;47.338;9.196;2023-02-18T01:27:33;7.90;67.10
41220;DHT22;26951;47.338;9.196;2023-02-18T01:30:18;8.00;66.70
41220;DHT22;26951;47.338;9.196;2023-02-18T01:33:02;8.00;66.20
41220;DHT22;26951;47.338;9.196;2023-02-18T01:35:46;8.10;67.00
41220;DHT22;26951;47.338;9.196;2023-02-18T01:38:30;8.20;65.90
41220;DHT22;26951;47.338;9.196;2023-02-18T01:41:14;8.20;65.40
41220;DHT22;26951;47.338;9.196;2023-02-18T01:44:12;8.20;65.60
41220;DHT22;26951;47.338;9.196;2023-02-18T01:46:56;8.20;65.60
41220;DHT22;26951;47.338;9.196;2023-02-18T01:49:42;8.30;65.20
41220;DHT22;26951;47.338;9.196;2023-02-18T01:52:27;8.30;65.00
41220;DHT22;26951;47.338;9.196;2023-02-18T01:55:15;8.40;64.50
41220;DHT22;26951;47.338;9.196;2023-02-18T01:57:59;8.40;64.30
41220;DHT22;26951;47.338;9.196;2023-02-18T02:04:25;8.40;63.80
41220;DHT22;26951;47.338;9.196;2023-02-18T02:07:10;8.40;63.60
41220;DHT22;26951;47.338;9.196;2023-02-18T02:09:56;8.40;63.10
41220;DHT22;26951;47.338;9.196;2023-02-18T02:15:52;8.40;62.40
41220;DHT22;26951;47.338;9.196;2023-02-18T02:19:04;8.40;62.40
41220;DHT22;26951;47.338;9.196;2023-02-18T02:22:32;8.40;62.20
41220;DHT22;26951;47.338;9.196;2023-02-18T02:35:02;8.30;62.40
41220;DHT22;26951;47.338;9.196;2023-02-18T02:38:33;8.20;62.40
41220;DHT22;26951;47.338;9.196;2023-02-18T02:47:36;8.20;62.70
41220;DHT22;26951;47.338;9.196;2023-02-18T02:53:22;8.30;62.40
41220;DHT22;26951;47.338;9.196;2023-02-18T02:56:19;8.40;62.30
41220;DHT22;26951;47.338;9.196;2023-02-18T02:59:08;8.30;62.10
41220;DHT22;26951;47.338;9.196;2023-02-18T03:08:29;8.20;61.80
41220;DHT22;26951;47.338;9.196;2023-02-18T03:11:17;8.30;61.20
41220;DHT22;26951;47.338;9.196;2023-02-18T03:14:04;8.20;61.30
41220;DHT22;26951;47.338;9.196;2023-02-18T03:16:59;8.20;61.70
41220;DHT22;26951;47.338;9.196;2023-02-18T03:19:51;8.20;62.30
41220;DHT22;26951;47.338;9.196;2023-02-18T03:22:43;8.10;62.40
41220;DHT22;26951;47.338;9.196;2023-02-18T03:25:29;8.10;63.30
41220;DHT22;26951;47.338;9.196;2023-02-18T03:28:18;8.10;63.00
41220;DHT22;26951;47.338;9.196;2023-02-18T03:31:08;8.10;62.90
41220;DHT22;26951;47.338;9.196;2023-02-18T03:34:24;8.10;63.20
41220;DHT22;26951;47.338;9.196;2023-02-18T03:37:07;8.10;62.60
41220;DHT22;26951;47.338;9.196;2023-02-18T03:39:56;8.10;62.90
41220;DHT22;26951;47.338;9.196;2023-02-18T03:42:42;8.00;63.50
41220;DHT22;26951;47.338;9.196;2023-02-18T03:45:26;8.00;63.50
41220;DHT22;26951;47.338;9.196;2023-02-18T03:48:11;7.90;63.70
41220;DHT22;26951;47.338;9.196;2023-02-18T03:50:55;8.00;64.70
41220;DHT22;26951;47.338;9.196;2023-02-18T03:53:39;7.90;64.80
41220;DHT22;26951;47.338;9.196;2023-02-18T03:56:23;8.00;65.10
41220;DHT22;26951;47.338;9.196;2023-02-18T03:59:08;7.90;65.00
41220;DHT22;26951;47.338;9.196;2023-02-18T04:01:53;7.90;65.20
41220;DHT22;26951;47.338;9.196;2023-02-18T04:04:37;8.00;65.50
41220;DHT22;26951;47.338;9.196;2023-02-18T04:07:21;8.00;64.90
41220;DHT22;26951;47.338;9.196;2023-02-18T04:10:06;8.00;65.30
41220;DHT22;26951;47.338;9.196;2023-02-18T04:12:51;7.90;65.40
41220;DHT22;26951;47.338;9.196;2023-02-18T04:15:35;7.90;65.10
41220;DHT22;26951;47.338;9.196;2023-02-18T04:18:20;7.90;64.70
41220;DHT22;26951;47.338;9.196;2023-02-18T04:21:05;7.90;64.30
41220;DHT22;26951;47.338;9.196;2023-02-18T04:23:49;7.90;64.60
41220;DHT22;26951;47.338;9.196;2023-02-18T04:26:33;7.90;64.40
41220;DHT22;26951;47.338;9.196;2023-02-18T04:29:18;7.80;64.20
41220;DHT22;26951;47.338;9.196;2023-02-18T04:32:02;7.80;64.20
41220;DHT22;26951;47.338;9.196;2023-02-18T04:34:46;7.70;63.80
41220;DHT22;26951;47.338;9.196;2023-02-18T04:37:30;7.60;63.40
41220;DHT22;26951;47.338;9.196;2023-02-18T04:40:15;7.50;63.20
41220;DHT22;26951;47.338;9.196;2023-02-18T04:43:00;7.50;64.00
41220;DHT22;26951;47.338;9.196;2023-02-18T04:45:45;7.50;64.00
41220;DHT22;26951;47.338;9.196;2023-02-18T04:48:29;7.40;63.90
41220;DHT22;26951;47.338;9.196;2023-02-18T04:51:13;7.30;63.60
41220;DHT22;26951;47.338;9.196;2023-02-18T04:53:58;7.30;62.60
41220;DHT22;26951;47.338;9.196;2023-02-18T04:56:42;7.20;61.70
41220;DHT22;26951;47.338;9.196;2023-02-18T04:59:27;7.10;61.40
41220;DHT22;26951;47.338;9.196;2023-02-18T05:02:11;7.00;62.00
41220;DHT22;26951;47.338;9.196;2023-02-18T05:04:55;6.90;61.20
41220;DHT22;26951;47.338;9.196;2023-02-18T05:07:39;6.70;61.50
41220;DHT22;26951;47.338;9.196;2023-02-18T05:10:24;6.70;62.60
41220;DHT22;26951;47.338;9.196;2023-02-18T05:13:09;6.60;61.80
41220;DHT22;26951;47.338;9.196;2023-02-18T05:15:53;6.50;63.10
41220;DHT22;26951;47.338;9.196;2023-02-18T05:18:37;6.50;68.30
41220;DHT22;26951;47.338;9.196;2023-02-18T05:21:21;6.50;69.30
41220;DHT22;26951;47.338;9.196;2023-02-18T05:24:06;6.60;71.00
41220;DHT22;26951;47.338;9.196;2023-02-18T05:26:51;6.60;69.20
41220;DHT22;26951;47.338;9.196;2023-02-18T05:29:35;6.60;69.30
41220;DHT22;26951;47.338;9.196;2023-02-18T05:32:19;6.60;69.60
41220;DHT22;26951;47.338;9.196;2023-02-18T05:35:04;6.60;68.90
41220;DHT22;26951;47.338;9.196;2023-02-18T05:37:48;6.60;70.60
41220;DHT22;26951;47.338;9.196;2023-02-18T05:40:32;6.70;70.00
41220;DHT22;26951;47.338;9.196;2023-02-18T05:43:16;6.60;69.40
41220;DHT22;26951;47.338;9.196;2023-02-18T05:46:01;6.60;68.70
41220;DHT22;26951;47.338;9.196;2023-02-18T05:48:45;6.60;68.30
41220;DHT22;26951;47.338;9.196;2023-02-18T05:51:29;6.50;67.70
41220;DHT22;26951;47.338;9.196;2023-02-18T05:54:13;6.50;67.80
41220;DHT22;26951;47.338;9.196;2023-02-18T05:56:57;6.40;67.60
41220;DHT22;26951;47.338;9.196;2023-02-18T05:59:41;6.40;67.00
41220;DHT22;26951;47.338;9.196;2023-02-18T06:02:25;6.30;68.20
41220;DHT22;26951;47.338;9.196;2023-02-18T06:05:10;6.30;67.80
41220;DHT22;26951;47.338;9.196;2023-02-18T06:07:54;6.30;66.80
41220;DHT22;26951;47.338;9.196;2023-02-18T06:10:39;6.20;66.20
41220;DHT22;26951;47.338;9.196;2023-02-18T06:13:23;6.20;67.60
41220;DHT22;26951;47.338;9.196;2023-02-18T06:16:07;6.20;68.70
41220;DHT22;26951;47.338;9.196;2023-02-18T06:18:52;6.20;69.40
41220;DHT22;26951;47.338;9.196;2023-02-18T06:21:36;6.20;69.50
41220;DHT22;26951;47.338;9.196;2023-02-18T06:24:20;6.20;69.40
41220;DHT22;26951;47.338;9.196;2023-02-18T06:27:04;6.10;69.60
41220;DHT22;26951;47.338;9.196;2023-02-18T06:29:48;6.10;69.20
41220;DHT22;26951;47.338;9.196;2023-02-18T06:32:32;6.10;70.00
41220;DHT22;26951;47.338;9.196;2023-02-18T06:35:16;6.10;70.80
41220;DHT22;26951;47.338;9.196;2023-02-18T06:38:00;6.10;70.60
41220;DHT22;26951;47.338;9.196;2023-02-18T06:40:46;6.10;70.60
41220;DHT22;26951;47.338;9.196;2023-02-18T06:43:30;6.10;70.90
41220;DHT22;26951;47.338;9.196;2023-02-18T06:46:14;6.10;71.30
41220;DHT22;26951;47.338;9.196;2023-02-18T06:48:59;6.10;72.40
41220;DHT22;26951;47.338;9.196;2023-02-18T06:51:42;6.20;73.10
41220;DHT22;26951;47.338;9.196;2023-02-18T06:54:27;6.20;75.10
41220;DHT22;26951;47.338;9.196;2023-02-18T06:57:11;6.30;75.30
41220;DHT22;26951;47.338;9.196;2023-02-18T06:59:55;6.40;76.10
41220;DHT22;26951;47.338;9.196;2023-02-18T07:02:39;6.50;75.50
41220;DHT22;26951;47.338;9.196;2023-02-18T07:05:23;6.60;76.00
41220;DHT22;26951;47.338;9.196;2023-02-18T07:08:07;6.80;76.20
41220;DHT22;26951;47.338;9.196;2023-02-18T07:10:51;7.00;75.60
41220;DHT22;26951;47.338;9.196;2023-02-18T07:13:35;7.10;73.70
41220;DHT22;26951;47.338;9.196;2023-02-18T07:16:19;7.30;72.10
41220;DHT22;26951;47.338;9.196;2023-02-18T07:19:03;7.40;71.10
41220;DHT22;26951;47.338;9.196;2023-02-18T07:21:47;7.50;70.90
41220;DHT22;26951;47.338;9.196;2023-02-18T07:24:31;7.60;70.40
41220;DHT22;26951;47.338;9.196;2023-02-18T07:27:16;7.70;70.00
41220;DHT22;26951;47.338;9.196;2023-02-18T07:30:00;7.70;71.20
41220;DHT22;26951;47.338;9.196;2023-02-18T07:32:45;7.80;70.50
41220;DHT22;26951;47.338;9.196;2023-02-18T07:35:29;7.90;70.00
41220;DHT22;26951;47.338;9.196;2023-02-18T07:38:13;8.00;69.00
41220;DHT22;26951;47.338;9.196;2023-02-18T07:40:58;8.10;69.30
41220;DHT22;26951;47.338;9.196;2023-02-18T07:43:43;8.20;68.40
41220;DHT22;26951;47.338;9.196;2023-02-18T07:46:27;8.30;68.70
41220;DHT22;26951;47.338;9.196;2023-02-18T07:49:11;8.40;67.70
41220;DHT22;26951;47.338;9.196;2023-02-18T07:51:56;8.50;66.70
41220;DHT22;26951;47.338;9.196;2023-02-18T07:54:40;8.60;67.30
41220;DHT22;26951;47.338;9.196;2023-02-18T07:57:24;8.70;66.30
41220;DHT22;26951;47.338;9.196;2023-02-18T08:00:09;8.70;66.70
41220;DHT22;26951;47.338;9.196;2023-02-18T08:02:53;8.80;64.40
41220;DHT22;26951;47.338;9.196;2023-02-18T08:05:37;8.90;64.10
41220;DHT22;26951;47.338;9.196;2023-02-18T08:08:24;8.90;65.20
41220;DHT22;26951;47.338;9.196;2023-02-18T08:11:08;9.00;63.20
41220;DHT22;26951;47.338;9.196;2023-02-18T08:13:52;9.10;62.50
41220;DHT22;26951;47.338;9.196;2023-02-18T08:16:36;9.20;62.60
41220;DHT22;26951;47.338;9.196;2023-02-18T08:19:21;9.30;62.80
41220;DHT22;26951;47.338;9.196;2023-02-18T08:22:05;9.30;62.70
41220;DHT22;26951;47.338;9.196;2023-02-18T08:24:49;9.50;62.10
41220;DHT22;26951;47.338;9.196;2023-02-18T08:27:33;9.60;62.20
41220;DHT22;26951;47.338;9.196;2023-02-18T08:30:17;9.70;60.50
41220;DHT22;26951;47.338;9.196;2023-02-18T08:33:01;9.90;60.70
41220;DHT22;26951;47.338;9.196;2023-02-18T08:35:47;10.00;59.70
41220;DHT22;26951;47.338;9.196;2023-02-18T08:38:32;10.20;58.90
41220;DHT22;26951;47.338;9.196;2023-02-18T08:41:16;10.40;57.40
41220;DHT22;26951;47.338;9.196;2023-02-18T08:44:04;10.50;58.80
41220;DHT22;26951;47.338;9.196;2023-02-18T08:46:48;10.70;57.60
41220;DHT22;26951;47.338;9.196;2023-02-18T08:49:33;11.00;55.50
41220;DHT22;26951;47.338;9.196;2023-02-18T08:52:17;11.30;55.20
41220;DHT22;26951;47.338;9.196;2023-02-18T08:55:01;11.50;55.40
41220;DHT22;26951;47.338;9.196;2023-02-18T08:57:47;11.60;52.60
41220;DHT22;26951;47.338;9.196;2023-02-18T09:00:32;11.90;54.80
41220;DHT22;26951;47.338;9.196;2023-02-18T09:03:16;11.90;51.40
41220;DHT22;26951;47.338;9.196;2023-02-18T09:06:01;12.10;51.60
41220;DHT22;26951;47.338;9.196;2023-02-18T09:08:45;12.20;50.90
41220;DHT22;26951;47.338;9.196;2023-02-18T09:11:30;12.40;51.40
41220;DHT22;26951;47.338;9.196;2023-02-18T09:14:14;12.50;49.50
41220;DHT22;26951;47.338;9.196;2023-02-18T09:16:59;12.70;50.80
41220;DHT22;26951;47.338;9.196;2023-02-18T09:19:43;12.90;50.40
41220;DHT22;26951;47.338;9.196;2023-02-18T09:22:27;13.00;48.40
41220;DHT22;26951;47.338;9.196;2023-02-18T09:25:12;13.10;49.20
41220;DHT22;26951;47.338;9.196;2023-02-18T09:27:56;13.10;46.80
41220;DHT22;26951;47.338;9.196;2023-02-18T09:30:40;12.90;48.80
41220;DHT22;26951;47.338;9.196;2023-02-18T09:33:24;12.90;48.50
41220;DHT22;26951;47.338;9.196;2023-02-18T09:36:08;12.80;48.10
41220;DHT22;26951;47.338;9.196;2023-02-18T09:38:53;12.80;48.50
41220;DHT22;26951;47.338;9.196;2023-02-18T09:41:44;12.70;48.40
41220;DHT22;26951;47.338;9.196;2023-02-18T09:44:34;12.70;48.40
41220;DHT22;26951;47.338;9.196;2023-02-18T09:47:38;12.50;48.30
41220;DHT22;26951;47.338;9.196;2023-02-18T09:50:29;12.40;48.90
41220;DHT22;26951;47.338;9.196;2023-02-18T09:53:15;12.40;49.10
41220;DHT22;26951;47.338;9.196;2023-02-18T09:55:59;12.30;49.70
41220;DHT22;26951;47.338;9.196;2023-02-18T09:58:46;12.30;49.70
41220;DHT22;26951;47.338;9.196;2023-02-18T10:01:34;12.30;50.00
41220;DHT22;26951;47.338;9.196;2023-02-18T10:04:28;12.10;49.50
41220;DHT22;26951;47.338;9.196;2023-02-18T10:07:37;12.10;51.70
41220;DHT22;26951;47.338;9.196;2023-02-18T10:10:41;12.00;51.00
41220;DHT22;26951;47.338;9.196;2023-02-18T10:13:31;12.20;51.50
41220;DHT22;26951;47.338;9.196;2023-02-18T10:16:17;12.10;50.10
41220;DHT22;26951;47.338;9.196;2023-02-18T10:19:32;12.10;50.50
41220;DHT22;26951;47.338;9.196;2023-02-18T10:22:18;12.20;50.20
41220;DHT22;26951;47.338;9.196;2023-02-18T10:25:05;12.10;50.80
41220;DHT22;26951;47.338;9.196;2023-02-18T10:27:51;12.20;52.40
41220;DHT22;26951;47.338;9.196;2023-02-18T10:30:40;12.30;50.80
41220;DHT22;26951;47.338;9.196;2023-02-18T10:33:34;12.50;49.30
41220;DHT22;26951;47.338;9.196;2023-02-18T10:36:24;12.70;49.30
41220;DHT22;26951;47.338;9.196;2023-02-18T10:39:37;12.90;48.90
41220;DHT22;26951;47.338;9.196;2023-02-18T10:45:27;13.50;46.40
41220;DHT22;26951;47.338;9.196;2023-02-18T10:51:28;13.50;46.80
41220;DHT22;26951;47.338;9.196;2023-02-18T10:54:13;13.70;45.50
41220;DHT22;26951;47.338;9.196;2023-02-18T10:56:59;13.70;44.40
41220;DHT22;26951;47.338;9.196;2023-02-18T11:00:02;13.40;44.50
41220;DHT22;26951;47.338;9.196;2023-02-18T11:03:18;13.30;45.50
41220;DHT22;26951;47.338;9.196;2023-02-18T11:06:03;13.30;47.00
41220;DHT22;26951;47.338;9.196;2023-02-18T11:08:48;13.20;45.40
41220;DHT22;26951;47.338;9.196;2023-02-18T11:11:37;13.30;48.20
41220;DHT22;26951;47.338;9.196;2023-02-18T11:14:36;13.40;47.80
41220;DHT22;26951;47.338;9.196;2023-02-18T11:17:25;13.70;47.40
41220;DHT22;26951;47.338;9.196;2023-02-18T11:20:21;13.80;44.00
41220;DHT22;26951;47.338;9.196;2023-02-18T11:26:05;13.70;45.90
41220;DHT22;26951;47.338;9.196;2023-02-18T11:28:51;13.80;45.20
41220;DHT22;26951;47.338;9.196;2023-02-18T11:31:43;13.70;45.00
41220;DHT22;26951;47.338;9.196;2023-02-18T11:34:31;13.70;46.50
41220;DHT22;26951;47.338;9.196;2023-02-18T11:37:18;13.80;44.90
41220;DHT22;26951;47.338;9.196;2023-02-18T11:40:03;13.80;44.80
41220;DHT22;26951;47.338;9.196;2023-02-18T11:42:47;13.90;46.00
41220;DHT22;26951;47.338;9.196;2023-02-18T11:45:33;14.20;45.20
41220;DHT22;26951;47.338;9.196;2023-02-18T11:48:22;14.50;46.20
41220;DHT22;26951;47.338;9.196;2023-02-18T11:51:26;14.60;44.60
41220;DHT22;26951;47.338;9.196;2023-02-18T11:54:29;14.70;44.00
41220;DHT22;26951;47.338;9.196;2023-02-18T11:57:15;14.50;42.00
41220;DHT22;26951;47.338;9.196;2023-02-18T12:00:03;14.30;43.80
41220;DHT22;26951;47.338;9.196;2023-02-18T12:02:52;14.20;43.40
41220;DHT22;26951;47.338;9.196;2023-02-18T12:05:37;14.10;44.00
41220;DHT22;26951;47.338;9.196;2023-02-18T12:08:37;14.20;44.10
41220;DHT22;26951;47.338;9.196;2023-02-18T12:11:39;14.20;42.70
41220;DHT22;26951;47.338;9.196;2023-02-18T12:14:24;14.20;42.70
41220;DHT22;26951;47.338;9.196;2023-02-18T12:23:41;13.90;43.10
41220;DHT22;26951;47.338;9.196;2023-02-18T12:26:30;13.80;44.30
41220;DHT22;26951;47.338;9.196;2023-02-18T12:45:08;13.70;44.40
41220;DHT22;26951;47.338;9.196;2023-02-18T12:48:21;13.60;44.30
41220;DHT22;26951;47.338;9.196;2023-02-18T12:51:13;13.60;45.30
41220;DHT22;26951;47.338;9.196;2023-02-18T13:03:52;13.70;43.70
41220;DHT22;26951;47.338;9.196;2023-02-18T13:06:57;13.90;44.60
41220;DHT22;26951;47.338;9.196;2023-02-18T13:16:05;14.50;42.70
41220;DHT22;26951;47.338;9.196;2023-02-18T13:19:13;14.60;40.30
41220;DHT22;26951;47.338;9.196;2023-02-18T13:22:03;14.60;40.50
41220;DHT22;26951;47.338;9.196;2023-02-18T13:24:49;14.60;41.60
41220;DHT22;26951;47.338;9.196;2023-02-18T13:27:53;14.70;41.70
41220;DHT22;26951;47.338;9.196;2023-02-18T13:30:47;14.70;40.40
41220;DHT22;26951;47.338;9.196;2023-02-18T13:33:53;14.60;41.30
41220;DHT22;26951;47.338;9.196;2023-02-18T13:39:52;14.60;41.60
41220;DHT22;26951;47.338;9.196;2023-02-18T13:42:37;14.60;41.20
41220;DHT22;26951;47.338;9.196;2023-02-18T13:45:27;14.60;41.50
41220;DHT22;26951;47.338;9.196;2023-02-18T13:48:26;14.60;41.60
41220;DHT22;26951;47.338;9.196;2023-02-18T13:51:16;14.70;42.40
41220;DHT22;26951;47.338;9.196;2023-02-18T13:54:23;14.80;41.70
41220;DHT22;26951;47.338;9.196;2023-02-18T13:57:17;14.70;40.40
41220;DHT22;26951;47.338;9.196;2023-02-18T14:00:05;14.70;42.20
41220;DHT22;26951;47.338;9.196;2023-02-18T14:03:00;14.70;40.60
41220;DHT22;26951;47.338;9.196;2023-02-18T14:05:45;14.80;41.70
41220;DHT22;26951;47.338;9.196;2023-02-18T14:14:33;14.70;40.50
41220;DHT22;26951;47.338;9.196;2023-02-18T14:22:49;14.80;41.80
41220;DHT22;26951;47.338;9.196;2023-02-18T14:25:39;14.90;40.90
41220;DHT22;26951;47.338;9.196;2023-02-18T14:31:29;14.90;40.30
41220;DHT22;26951;47.338;9.196;2023-02-18T14:43:44;14.70;41.20
41220;DHT22;26951;47.338;9.196;2023-02-18T14:49:47;14.60;41.60
41220;DHT22;26951;47.338;9.196;2023-02-18T14:52:42;14.60;41.60
41220;DHT22;26951;47.338;9.196;2023-02-18T14:55:29;14.60;41.60
41220;DHT22;26951;47.338;9.196;2023-02-18T15:01:21;14.70;41.20
41220;DHT22;26951;47.338;9.196;2023-02-18T15:04:05;14.60;40.80
41220;DHT22;26951;47.338;9.196;2023-02-18T15:07:01;14.60;40.90
41220;DHT22;26951;47.338;9.196;2023-02-18T15:09:52;14.60;40.40
41220;DHT22;26951;47.338;9.196;2023-02-18T15:12:37;14.40;41.40
41220;DHT22;26951;47.338;9.196;2023-02-18T15:15:22;14.30;41.60
41220;DHT22;26951;47.338;9.196;2023-02-18T15:18:20;14.40;41.70
41220;DHT22;26951;47.338;9.196;2023-02-18T15:21:07;14.40;42.50
41220;DHT22;26951;47.338;9.196;2023-02-18T15:23:51;14.40;41.70
41220;DHT22;26951;47.338;9.196;2023-02-18T15:26:41;14.40;42.10
41220;DHT22;26951;47.338;9.196;2023-02-18T15:29:33;14.30;42.20
41220;DHT22;26951;47.338;9.196;2023-02-18T15:32:24;14.30;42.90
41220;DHT22;26951;47.338;9.196;2023-02-18T15:35:15;14.30;42.10
41220;DHT22;26951;47.338;9.196;2023-02-18T15:38:00;14.20;42.40
41220;DHT22;26951;47.338;9.196;2023-02-18T15:40:51;14.20;42.80
41220;DHT22;26951;47.338;9.196;2023-02-18T15:43:35;14.10;42.40
41220;DHT22;26951;47.338;9.196;2023-02-18T15:46:20;14.10;41.70
41220;DHT22;26951;47.338;9.196;2023-02-18T15:49:07;14.00;41.80
41220;DHT22;26951;47.338;9.196;2023-02-18T15:51:56;13.80;42.90
41220;DHT22;26951;47.338;9.196;2023-02-18T15:54:41;13.70;43.20
41220;DHT22;26951;47.338;9.196;2023-02-18T15:57:27;13.60;42.90
41220;DHT22;26951;47.338;9.196;2023-02-18T16:00:13;13.40;42.70
41220;DHT22;26951;47.338;9.196;2023-02-18T16:03:21;13.40;43.10
41220;DHT22;26951;47.338;9.196;2023-02-18T16:06:20;13.30;43.90
41220;DHT22;26951;47.338;9.196;2023-02-18T16:11:55;13.10;43.70
41220;DHT22;26951;47.338;9.196;2023-02-18T16:14:48;13.00;44.10
41220;DHT22;26951;47.338;9.196;2023-02-18T16:17:33;12.90;44.20
41220;DHT22;26951;47.338;9.196;2023-02-18T16:20:31;12.70;44.70
41220;DHT22;26951;47.338;9.196;2023-02-18T16:23:16;12.60;45.90
41220;DHT22;26951;47.338;9.196;2023-02-18T16:29:36;12.40;46.00
41220;DHT22;26951;47.338;9.196;2023-02-18T16:32:23;12.20;46.20
41220;DHT22;26951;47.338;9.196;2023-02-18T16:35:07;12.10;46.60
41220;DHT22;26951;47.338;9.196;2023-02-18T16:37:55;12.00;46.80
41220;DHT22;26951;47.338;9.196;2023-02-18T16:40:42;11.90;47.20
41220;DHT22;26951;47.338;9.196;2023-02-18T16:43:27;11.90;47.40
41220;DHT22;26951;47.338;9.196;2023-02-18T16:46:17;11.80;47.60
41220;DHT22;26951;47.338;9.196;2023-02-18T16:49:02;11.70;48.00
41220;DHT22;26951;47.338;9.196;2023-02-18T16:51:47;11.60;48.10
41220;DHT22;26951;47.338;9.196;2023-02-18T16:54:31;11.50;48.10
41220;DHT22;26951;47.338;9.196;2023-02-18T16:57:16;11.40;48.50
41220;DHT22;26951;47.338;9.196;2023-02-18T17:00:01;11.30;48.80
41220;DHT22;26951;47.338;9.196;2023-02-18T17:02:50;11.20;48.80
41220;DHT22;26951;47.338;9.196;2023-02-18T17:05:35;11.20;49.20
41220;DHT22;26951;47.338;9.196;2023-02-18T17:08:26;11.00;49.20
41220;DHT22;26951;47.338;9.196;2023-02-18T17:11:17;10.90;49.20
41220;DHT22;26951;47.338;9.196;2023-02-18T17:14:03;10.90;48.90
41220;DHT22;26951;47.338;9.196;2023-02-18T17:16:50;10.70;48.80
41220;DHT22;26951;47.338;9.196;2023-02-18T17:19:35;10.60;48.10
41220;DHT22;26951;47.338;9.196;2023-02-18T17:22:19;10.50;48.60
41220;DHT22;26951;47.338;9.196;2023-02-18T17:25:14;10.40;48.10
41220;DHT22;26951;47.338;9.196;2023-02-18T17:28:01;10.20;48.40
41220;DHT22;26951;47.338;9.196;2023-02-18T17:30:54;10.10;48.80
41220;DHT22;26951;47.338;9.196;2023-02-18T17:33:39;9.90;50.20
41220;DHT22;26951;47.338;9.196;2023-02-18T17:36:24;9.70;51.40
41220;DHT22;26951;47.338;9.196;2023-02-18T17:39:11;9.60;51.10
41220;DHT22;26951;47.338;9.196;2023-02-18T17:41:56;9.40;52.50
41220;DHT22;26951;47.338;9.196;2023-02-18T17:44:40;9.20;53.10
41220;DHT22;26951;47.338;9.196;2023-02-18T17:47:25;9.20;53.70
41220;DHT22;26951;47.338;9.196;2023-02-18T17:50:09;9.10;54.20
41220;DHT22;26951;47.338;9.196;2023-02-18T17:52:53;9.00;55.50
41220;DHT22;26951;47.338;9.196;2023-02-18T17:55:39;8.80;54.10
41220;DHT22;26951;47.338;9.196;2023-02-18T17:58:24;8.80;55.00
41220;DHT22;26951;47.338;9.196;2023-02-18T18:01:09;8.70;54.30
41220;DHT22;26951;47.338;9.196;2023-02-18T18:03:53;8.60;54.10
41220;DHT22;26951;47.338;9.196;2023-02-18T18:06:38;8.50;53.80
41220;DHT22;26951;47.338;9.196;2023-02-18T18:09:22;8.40;56.30
41220;DHT22;26951;47.338;9.196;2023-02-18T18:12:07;8.30;55.50
41220;DHT22;26951;47.338;9.196;2023-02-18T18:14:51;8.20;55.00
41220;DHT22;26951;47.338;9.196;2023-02-18T18:17:35;8.10;55.70
41220;DHT22;26951;47.338;9.196;2023-02-18T18:20:20;8.00;56.20
41220;DHT22;26951;47.338;9.196;2023-02-18T18:23:05;7.90;57.60
41220;DHT22;26951;47.338;9.196;2023-02-18T18:25:55;7.80;57.70
41220;DHT22;26951;47.338;9.196;2023-02-18T18:28:39;7.80;58.70
41220;DHT22;26951;47.338;9.196;2023-02-18T18:31:24;7.80;62.10
41220;DHT22;26951;47.338;9.196;2023-02-18T18:34:08;7.80;62.70
41220;DHT22;26951;47.338;9.196;2023-02-18T18:36:52;7.80;61.10
41220;DHT22;26951;47.338;9.196;2023-02-18T18:39:37;7.70;61.70
41220;DHT22;26951;47.338;9.196;2023-02-18T18:42:21;7.70;61.00
41220;DHT22;26951;47.338;9.196;2023-02-18T18:45:06;7.60;61.00
41220;DHT22;26951;47.338;9.196;2023-02-18T18:47:50;7.60;60.00
41220;DHT22;26951;47.338;9.196;2023-02-18T18:50:35;7.50;59.00
41220;DHT22;26951;47.338;9.196;2023-02-18T18:53:35;7.50;58.20
41220;DHT22;26951;47.338;9.196;2023-02-18T18:56:19;7.40;59.90
41220;DHT22;26951;47.338;9.196;2023-02-18T18:59:04;7.40;60.50
41220;DHT22;26951;47.338;9.196;2023-02-18T19:01:50;7.30;61.00
41220;DHT22;26951;47.338;9.196;2023-02-18T19:04:34;7.30;59.80
41220;DHT22;26951;47.338;9.196;2023-02-18T19:07:19;7.30;58.30
41220;DHT22;26951;47.338;9.196;2023-02-18T19:10:03;7.20;57.70
41220;DHT22;26951;47.338;9.196;2023-02-18T19:12:48;7.20;59.40
41220;DHT22;26951;47.338;9.196;2023-02-18T19:15:32;7.10;58.90
41220;DHT22;26951;47.338;9.196;2023-02-18T19:18:19;7.10;58.10
41220;DHT22;26951;47.338;9.196;2023-02-18T19:21:04;7.00;59.50
41220;DHT22;26951;47.338;9.196;2023-02-18T19:23:48;7.00;58.90
41220;DHT22;26951;47.338;9.196;2023-02-18T19:26:33;6.90;58.40
41220;DHT22;26951;47.338;9.196;2023-02-18T19:29:17;6.80;58.60
41220;DHT22;26951;47.338;9.196;2023-02-18T19:32:02;6.80;59.00
41220;DHT22;26951;47.338;9.196;2023-02-18T19:34:47;6.70;59.90
41220;DHT22;26951;47.338;9.196;2023-02-18T19:37:32;6.70;60.30
41220;DHT22;26951;47.338;9.196;2023-02-18T19:40:20;6.70;59.80
41220;DHT22;26951;47.338;9.196;2023-02-18T19:43:05;6.70;60.70
41220;DHT22;26951;47.338;9.196;2023-02-18T19:45:50;6.70;62.30
41220;DHT22;26951;47.338;9.196;2023-02-18T19:48:34;6.60;62.90